sensor_id;sensor_type;location;lat;lon;timestamp;pressure;altitude;pressure_sealevel;temperature;humidity
25130;BME280;13308;50.860;13.664;2024-01-11T06:30:46;97934.78;;;-6.95;100.00
25130;BME280;13308;50.860;13.664;2024-01-11T06:33:12;97921.91;;;-6.93;100.00
25130;BME280;13308;50.860;13.664;2024-01-11T06:35:37;97913.31;;;-6.90;100.00
25130;BME280;13308;50.860;13.664;2024-01-11T06:38:02;97913.31;;;-6.90;100.00
25130;BME280;13308;50.860;13.664;2024-01-11T06:40:28;97923.78;;;-6.93;100.00
25130;BME280;13308;50.860;13.664;2024-01-11T06:42:53;97925.44;;;-6.97;100.00
25130;BME280;13308;50.860;13.664;2024-01-11T06:45:18;97927.25;;;-6.93;100.00
25130;BME280;13308;50.860;13.664;2024-01-11T06:47:44;97928.31;;;-6.89;100.00
25130;BME280;13308;50.860;13.664;2024-01-11T06:50:12;97930.44;;;-6.91;100.00
25130;BME280;13308;50.860;13.664;2024-01-11T06:52:37;97928.50;;;-6.80;100.00
25130;BME280;13308;50.860;13.664;2024-01-11T06:55:03;97933.34;;;-6.82;100.00
25130;BME280;13308;50.860;13.664;2024-01-11T06:57:29;97927.16;;;-6.78;100.00
25130;BME280;13308;50.860;13.664;2024-01-11T06:59:54;97923.91;;;-6.75;100.00
25130;BME280;13308;50.860;13.664;2024-01-11T07:02:19;97914.78;;;-6.74;100.00
25130;BME280;13308;50.860;13.664;2024-01-11T07:04:45;97910.53;;;-6.80;100.00
25130;BME280;13308;50.860;13.664;2024-01-11T07:07:10;97901.97;;;-6.82;100.00
25130;BME280;13308;50.860;13.664;2024-01-11T07:09:36;97894.97;;;-6.78;100.00
25130;BME280;13308;50.860;13.664;2024-01-11T07:12:01;97883.72;;;-6.80;100.00
25130;BME280;13308;50.860;13.664;2024-01-11T07:14:27;97882.63;;;-6.79;100.00
25130;BME280;13308;50.860;13.664;2024-01-11T07:16:52;97889.84;;;-6.74;100.00
25130;BME280;13308;50.860;13.664;2024-01-11T07:19:17;97891.41;;;-6.68;100.00
25130;BME280;13308;50.860;13.664;2024-01-11T07:21:43;97869.06;;;-6.59;100.00
25130;BME280;13308;50.860;13.664;2024-01-11T07:24:08;97852.38;;;-6.56;100.00
25130;BME280;13308;50.860;13.664;2024-01-11T07:26:34;97845.44;;;-6.57;100.00
25130;BME280;13308;50.860;13.664;2024-01-11T07:28:59;97861.97;;;-6.50;100.00
25130;BME280;13308;50.860;13.664;2024-01-11T07:31:24;97875.81;;;-6.38;100.00
25130;BME280;13308;50.860;13.664;2024-01-11T07:33:50;97859.88;;;-6.29;100.00
25130;BME280;13308;50.860;13.664;2024-01-11T07:36:15;97858.91;;;-6.15;100.00
25130;BME280;13308;50.860;13.664;2024-01-11T07:38:41;97861.03;;;-6.12;100.00
25130;BME280;13308;50.860;13.664;2024-01-11T07:41:06;97854.97;;;-5.99;100.00
25130;BME280;13308;50.860;13.664;2024-01-11T07:43:31;97839.72;;;-6.03;100.00
25130;BME280;13308;50.860;13.664;2024-01-11T07:46:03;97838.34;;;-6.01;100.00
25130;BME280;13308;50.860;13.664;2024-01-11T07:48:30;97837.78;;;-5.98;100.00
25130;BME280;13308;50.860;13.664;2024-01-11T07:50:56;97840.41;;;-5.93;100.00
25130;BME280;13308;50.860;13.664;2024-01-11T07:53:22;97856.25;;;-5.78;100.00
25130;BME280;13308;50.860;13.664;2024-01-11T07:55:47;97873.84;;;-5.67;100.00
25130;BME280;13308;50.860;13.664;2024-01-11T07:58:13;97854.31;;;-5.54;100.00
25130;BME280;13308;50.860;13.664;2024-01-11T08:00:38;97853.53;;;-5.54;100.00
25130;BME280;13308;50.860;13.664;2024-01-11T08:03:04;97849.19;;;-5.50;100.00
25130;BME280;13308;50.860;13.664;2024-01-11T08:05:41;97848.25;;;-5.41;100.00
25130;BME280;13308;50.860;13.664;2024-01-11T08:08:08;97835.44;;;-5.49;100.00
25130;BME280;13308;50.860;13.664;2024-01-11T08:10:33;97852.16;;;-5.52;100.00
25130;BME280;13308;50.860;13.664;2024-01-11T08:12:59;97846.88;;;-5.38;100.00
25130;BME280;13308;50.860;13.664;2024-01-11T08:15:25;97843.78;;;-5.32;100.00
25130;BME280;13308;50.860;13.664;2024-01-11T08:17:50;97852.97;;;-5.33;100.00
25130;BME280;13308;50.860;13.664;2024-01-11T08:20:16;97854.84;;;-5.33;100.00
25130;BME280;13308;50.860;13.664;2024-01-11T08:22:44;97867.84;;;-5.22;100.00
25130;BME280;13308;50.860;13.664;2024-01-11T08:25:12;97878.31;;;-5.20;100.00
25130;BME280;13308;50.860;13.664;2024-01-11T08:27:38;97879.66;;;-5.04;100.00
25130;BME280;13308;50.860;13.664;2024-01-11T08:30:04;97882.78;;;-4.97;100.00
25130;BME280;13308;50.860;13.664;2024-01-11T08:32:30;97878.13;;;-4.92;100.00
25130;BME280;13308;50.860;13.664;2024-01-11T08:34:57;97856.97;;;-4.98;100.00
25130;BME280;13308;50.860;13.664;2024-01-11T08:37:22;97863.44;;;-4.81;100.00
25130;BME280;13308;50.860;13.664;2024-01-11T08:39:48;97864.53;;;-4.68;100.00
25130;BME280;13308;50.860;13.664;2024-01-11T08:42:14;97868.75;;;-4.62;100.00
25130;BME280;13308;50.860;13.664;2024-01-11T08:44:43;97876.59;;;-4.66;100.00
25130;BME280;13308;50.860;13.664;2024-01-11T08:47:09;97885.00;;;-4.54;100.00
25130;BME280;13308;50.860;13.664;2024-01-11T08:49:41;97885.41;;;-4.47;100.00
25130;BME280;13308;50.860;13.664;2024-01-11T08:52:07;97903.41;;;-4.29;100.00
25130;BME280;13308;50.860;13.664;2024-01-11T08:54:33;97903.25;;;-4.05;100.00
25130;BME280;13308;50.860;13.664;2024-01-11T08:56:59;97899.28;;;-3.81;100.00
25130;BME280;13308;50.860;13.664;2024-01-11T08:59:24;97897.47;;;-3.72;100.00
25130;BME280;13308;50.860;13.664;2024-01-11T09:01:51;97889.38;;;-3.58;100.00
25130;BME280;13308;50.860;13.664;2024-01-11T09:04:17;97889.66;;;-3.60;100.00
25130;BME280;13308;50.860;13.664;2024-01-11T09:06:43;97895.63;;;-3.36;100.00
25130;BME280;13308;50.860;13.664;2024-01-11T09:09:11;97894.09;;;-3.15;100.00
25130;BME280;13308;50.860;13.664;2024-01-11T09:11:39;97898.38;;;-2.92;100.00
25130;BME280;13308;50.860;13.664;2024-01-11T09:14:05;97891.91;;;-2.69;100.00
25130;BME280;13308;50.860;13.664;2024-01-11T09:16:31;97875.94;;;-2.57;100.00
25130;BME280;13308;50.860;13.664;2024-01-11T09:18:56;97873.56;;;-2.58;98.79
25130;BME280;13308;50.860;13.664;2024-01-11T09:21:22;97873.25;;;-2.57;98.14
25130;BME280;13308;50.860;13.664;2024-01-11T09:23:47;97880.09;;;-2.51;97.85
25130;BME280;13308;50.860;13.664;2024-01-11T09:26:12;97881.91;;;-2.46;97.01
25130;BME280;13308;50.860;13.664;2024-01-11T09:28:38;97880.09;;;-2.51;95.72
25130;BME280;13308;50.860;13.664;2024-01-11T09:31:03;97894.56;;;-2.25;94.74
25130;BME280;13308;50.860;13.664;2024-01-11T09:33:29;97892.53;;;-1.89;93.88
25130;BME280;13308;50.860;13.664;2024-01-11T09:35:54;97889.16;;;-1.47;92.37
25130;BME280;13308;50.860;13.664;2024-01-11T09:38:21;97897.97;;;-1.07;90.62
25130;BME280;13308;50.860;13.664;2024-01-11T09:40:59;97899.13;;;-0.83;88.10
25130;BME280;13308;50.860;13.664;2024-01-11T09:43:31;97913.19;;;-0.01;86.96
25130;BME280;13308;50.860;13.664;2024-01-11T09:45:58;97913.38;;;0.69;85.35
25130;BME280;13308;50.860;13.664;2024-01-11T09:48:25;97909.91;;;1.09;80.01
25130;BME280;13308;50.860;13.664;2024-01-11T09:50:51;97905.47;;;1.05;79.40
25130;BME280;13308;50.860;13.664;2024-01-11T09:53:18;97895.44;;;1.26;79.16
25130;BME280;13308;50.860;13.664;2024-01-11T09:55:46;97903.03;;;1.32;75.64
25130;BME280;13308;50.860;13.664;2024-01-11T09:58:12;97906.94;;;1.23;70.28
25130;BME280;13308;50.860;13.664;2024-01-11T10:00:38;97918.63;;;2.09;67.18
25130;BME280;13308;50.860;13.664;2024-01-11T10:03:06;97923.31;;;1.88;65.53
25130;BME280;13308;50.860;13.664;2024-01-11T10:05:33;97936.53;;;2.66;67.55
25130;BME280;13308;50.860;13.664;2024-01-11T10:07:59;97928.78;;;2.80;63.66
25130;BME280;13308;50.860;13.664;2024-01-11T10:10:24;97917.94;;;2.12;62.84
25130;BME280;13308;50.860;13.664;2024-01-11T10:12:50;97909.09;;;2.03;64.32
25130;BME280;13308;50.860;13.664;2024-01-11T10:15:16;97908.88;;;2.20;64.02
25130;BME280;13308;50.860;13.664;2024-01-11T10:17:45;97902.66;;;1.75;65.22
25130;BME280;13308;50.860;13.664;2024-01-11T10:20:11;97892.78;;;2.15;64.16
25130;BME280;13308;50.860;13.664;2024-01-11T10:22:39;97899.16;;;2.43;62.86
25130;BME280;13308;50.860;13.664;2024-01-11T10:25:16;97896.91;;;2.81;64.83
25130;BME280;13308;50.860;13.664;2024-01-11T10:27:44;97895.97;;;3.01;63.41
25130;BME280;13308;50.860;13.664;2024-01-11T10:30:12;97886.22;;;2.88;63.36
25130;BME280;13308;50.860;13.664;2024-01-11T10:32:48;97891.00;;;2.43;63.15
25130;BME280;13308;50.860;13.664;2024-01-11T10:35:14;97889.72;;;2.16;64.25
25130;BME280;13308;50.860;13.664;2024-01-11T10:37:40;97893.13;;;1.69;65.08
25130;BME280;13308;50.860;13.664;2024-01-11T10:40:07;97884.72;;;1.62;65.25
25130;BME280;13308;50.860;13.664;2024-01-11T10:42:51;97884.03;;;1.65;67.03
25130;BME280;13308;50.860;13.664;2024-01-11T10:45:19;97873.81;;;1.09;67.21
25130;BME280;13308;50.860;13.664;2024-01-11T10:47:54;97864.75;;;1.58;67.21
25130;BME280;13308;50.860;13.664;2024-01-11T10:50:22;97862.53;;;1.72;65.66
25130;BME280;13308;50.860;13.664;2024-01-11T10:53:28;97864.63;;;1.54;65.67
25130;BME280;13308;50.860;13.664;2024-01-11T10:55:59;97855.22;;;1.52;67.38
25130;BME280;13308;50.860;13.664;2024-01-11T10:58:26;97867.50;;;1.70;67.36
25130;BME280;13308;50.860;13.664;2024-01-11T11:00:53;97855.41;;;1.79;66.99
25130;BME280;13308;50.860;13.664;2024-01-11T11:03:19;97857.31;;;1.67;65.60
25130;BME280;13308;50.860;13.664;2024-01-11T11:05:45;97852.72;;;1.47;65.64
25130;BME280;13308;50.860;13.664;2024-01-11T11:08:13;97843.19;;;1.20;66.33
25130;BME280;13308;50.860;13.664;2024-01-11T11:10:40;97838.09;;;1.19;67.15
25130;BME280;13308;50.860;13.664;2024-01-11T11:13:06;97830.38;;;1.09;68.01
25130;BME280;13308;50.860;13.664;2024-01-11T11:15:35;97834.13;;;1.37;66.92
25130;BME280;13308;50.860;13.664;2024-01-11T11:18:02;97825.78;;;2.22;66.22
25130;BME280;13308;50.860;13.664;2024-01-11T11:23:55;97828.25;;;2.03;64.08
25130;BME280;13308;50.860;13.664;2024-01-11T11:26:21;97816.63;;;2.27;63.66
25130;BME280;13308;50.860;13.664;2024-01-11T11:28:47;97818.09;;;2.48;64.72
25130;BME280;13308;50.860;13.664;2024-01-11T11:31:13;97816.72;;;2.30;62.18
25130;BME280;13308;50.860;13.664;2024-01-11T11:33:58;97817.84;;;2.53;63.15
25130;BME280;13308;50.860;13.664;2024-01-11T11:36:29;97818.88;;;2.25;60.99
25130;BME280;13308;50.860;13.664;2024-01-11T11:38:54;97809.56;;;2.02;62.38
25130;BME280;13308;50.860;13.664;2024-01-11T11:41:25;97803.66;;;2.12;62.86
25130;BME280;13308;50.860;13.664;2024-01-11T11:43:51;97798.94;;;2.33;63.01
25130;BME280;13308;50.860;13.664;2024-01-11T11:46:16;97799.56;;;2.54;61.86
25130;BME280;13308;50.860;13.664;2024-01-11T11:48:49;97787.78;;;2.02;61.55
25130;BME280;13308;50.860;13.664;2024-01-11T11:51:17;97788.59;;;2.02;62.70
25130;BME280;13308;50.860;13.664;2024-01-11T11:53:45;97795.25;;;2.65;61.88
25130;BME280;13308;50.860;13.664;2024-01-11T11:56:10;97789.97;;;3.23;61.34
25130;BME280;13308;50.860;13.664;2024-01-11T11:58:37;97784.97;;;3.68;58.08
25130;BME280;13308;50.860;13.664;2024-01-11T12:01:04;97778.19;;;4.24;56.12
25130;BME280;13308;50.860;13.664;2024-01-11T12:03:36;97779.28;;;3.73;55.15
25130;BME280;13308;50.860;13.664;2024-01-11T12:06:06;97777.28;;;3.43;55.95
25130;BME280;13308;50.860;13.664;2024-01-11T12:08:32;97775.50;;;3.35;54.57
25130;BME280;13308;50.860;13.664;2024-01-11T12:10:58;97780.03;;;2.76;53.62
25130;BME280;13308;50.860;13.664;2024-01-11T12:13:24;97771.69;;;2.57;54.68
25130;BME280;13308;50.860;13.664;2024-01-11T12:15:49;97780.97;;;2.68;54.83
25130;BME280;13308;50.860;13.664;2024-01-11T12:18:15;97785.94;;;2.66;53.25
25130;BME280;13308;50.860;13.664;2024-01-11T12:20:40;97785.28;;;2.69;53.77
25130;BME280;13308;50.860;13.664;2024-01-11T12:23:05;97789.38;;;2.63;52.95
25130;BME280;13308;50.860;13.664;2024-01-11T12:25:31;97787.09;;;2.53;52.96
25130;BME280;13308;50.860;13.664;2024-01-11T12:27:57;97788.56;;;2.62;52.92
25130;BME280;13308;50.860;13.664;2024-01-11T12:30:23;97794.09;;;2.78;53.54
25130;BME280;13308;50.860;13.664;2024-01-11T12:32:49;97801.44;;;2.89;54.21
25130;BME280;13308;50.860;13.664;2024-01-11T12:35:15;97803.63;;;2.72;53.76
25130;BME280;13308;50.860;13.664;2024-01-11T12:37:40;97792.53;;;2.53;55.24
25130;BME280;13308;50.860;13.664;2024-01-11T12:40:06;97785.06;;;2.38;54.98
25130;BME280;13308;50.860;13.664;2024-01-11T12:42:35;97793.59;;;2.36;56.30
25130;BME280;13308;50.860;13.664;2024-01-11T12:45:01;97786.31;;;2.16;57.73
25130;BME280;13308;50.860;13.664;2024-01-11T12:47:26;97783.16;;;2.14;58.38
25130;BME280;13308;50.860;13.664;2024-01-11T12:49:51;97790.50;;;1.90;59.26
25130;BME280;13308;50.860;13.664;2024-01-11T12:52:20;97772.69;;;1.80;59.78
25130;BME280;13308;50.860;13.664;2024-01-11T12:54:46;97780.53;;;1.94;60.77
25130;BME280;13308;50.860;13.664;2024-01-11T12:57:12;97775.91;;;2.18;60.80
25130;BME280;13308;50.860;13.664;2024-01-11T12:59:42;97772.59;;;2.01;61.71
25130;BME280;13308;50.860;13.664;2024-01-11T13:02:08;97770.88;;;1.72;61.93
25130;BME280;13308;50.860;13.664;2024-01-11T13:04:35;97767.75;;;1.82;61.33
25130;BME280;13308;50.860;13.664;2024-01-11T13:07:00;97756.25;;;1.53;61.97
25130;BME280;13308;50.860;13.664;2024-01-11T13:09:26;97754.34;;;1.77;62.38
25130;BME280;13308;50.860;13.664;2024-01-11T13:11:51;97762.41;;;1.86;61.39
25130;BME280;13308;50.860;13.664;2024-01-11T13:14:16;97765.31;;;1.57;60.12
25130;BME280;13308;50.860;13.664;2024-01-11T13:16:45;97772.78;;;1.60;60.35
25130;BME280;13308;50.860;13.664;2024-01-11T13:19:11;97766.91;;;1.58;60.21
25130;BME280;13308;50.860;13.664;2024-01-11T13:21:36;97764.53;;;1.68;59.60
25130;BME280;13308;50.860;13.664;2024-01-11T13:24:02;97778.25;;;1.72;60.27
25130;BME280;13308;50.860;13.664;2024-01-11T13:26:28;97777.78;;;1.58;58.84
25130;BME280;13308;50.860;13.664;2024-01-11T13:28:53;97769.09;;;1.32;58.85
25130;BME280;13308;50.860;13.664;2024-01-11T13:31:19;97771.84;;;1.44;60.39
25130;BME280;13308;50.860;13.664;2024-01-11T13:33:46;97769.13;;;1.44;60.13
25130;BME280;13308;50.860;13.664;2024-01-11T13:36:13;97763.03;;;1.14;57.52
25130;BME280;13308;50.860;13.664;2024-01-11T13:38:38;97756.31;;;0.79;58.50
25130;BME280;13308;50.860;13.664;2024-01-11T13:41:04;97756.81;;;0.61;59.49
25130;BME280;13308;50.860;13.664;2024-01-11T13:43:30;97756.63;;;0.66;58.97
25130;BME280;13308;50.860;13.664;2024-01-11T13:45:55;97763.88;;;0.53;59.06
25130;BME280;13308;50.860;13.664;2024-01-11T13:48:21;97757.00;;;0.56;59.87
25130;BME280;13308;50.860;13.664;2024-01-11T13:50:46;97756.81;;;0.61;60.48
25130;BME280;13308;50.860;13.664;2024-01-11T13:53:14;97762.19;;;0.69;59.81
25130;BME280;13308;50.860;13.664;2024-01-11T13:55:40;97758.97;;;0.88;59.30
25130;BME280;13308;50.860;13.664;2024-01-11T13:58:05;97766.59;;;1.27;58.92
25130;BME280;13308;50.860;13.664;2024-01-11T14:00:31;97768.50;;;1.71;55.52
25130;BME280;13308;50.860;13.664;2024-01-11T14:02:56;97749.69;;;1.78;54.74
25130;BME280;13308;50.860;13.664;2024-01-11T14:05:21;97753.78;;;1.84;55.71
25130;BME280;13308;50.860;13.664;2024-01-11T14:07:47;97748.34;;;1.72;55.32
25130;BME280;13308;50.860;13.664;2024-01-11T14:10:14;97750.66;;;1.05;56.20
25130;BME280;13308;50.860;13.664;2024-01-11T14:12:40;97756.09;;;1.05;56.55
25130;BME280;13308;50.860;13.664;2024-01-11T14:15:08;97752.22;;;0.94;56.87
25130;BME280;13308;50.860;13.664;2024-01-11T14:17:37;97749.97;;;0.96;56.97
25130;BME280;13308;50.860;13.664;2024-01-11T14:20:03;97756.19;;;0.76;57.33
25130;BME280;13308;50.860;13.664;2024-01-11T14:22:29;97757.78;;;0.77;57.75
25130;BME280;13308;50.860;13.664;2024-01-11T14:24:54;97754.81;;;0.70;57.95
25130;BME280;13308;50.860;13.664;2024-01-11T14:27:20;97760.91;;;0.67;58.30
25130;BME280;13308;50.860;13.664;2024-01-11T14:29:47;97748.41;;;0.54;59.00
25130;BME280;13308;50.860;13.664;2024-01-11T14:32:13;97762.53;;;0.18;58.63
25130;BME280;13308;50.860;13.664;2024-01-11T14:34:41;97752.22;;;0.12;59.60
25130;BME280;13308;50.860;13.664;2024-01-11T14:37:07;97764.19;;;0.02;59.04
25130;BME280;13308;50.860;13.664;2024-01-11T14:39:32;97756.59;;;-0.04;59.98
25130;BME280;13308;50.860;13.664;2024-01-11T14:41:57;97741.81;;;-0.15;61.03
25130;BME280;13308;50.860;13.664;2024-01-11T14:44:23;97751.44;;;-0.26;61.30
25130;BME280;13308;50.860;13.664;2024-01-11T14:46:48;97754.97;;;-0.34;61.95
25130;BME280;13308;50.860;13.664;2024-01-11T14:49:14;97775.56;;;-0.41;61.57
25130;BME280;13308;50.860;13.664;2024-01-11T14:51:39;97766.84;;;-0.47;61.87
25130;BME280;13308;50.860;13.664;2024-01-11T14:54:05;97759.19;;;-0.53;62.51
25130;BME280;13308;50.860;13.664;2024-01-11T14:56:30;97773.88;;;-0.63;62.73
25130;BME280;13308;50.860;13.664;2024-01-11T14:58:56;97772.63;;;-0.74;63.46
25130;BME280;13308;50.860;13.664;2024-01-11T15:01:21;97783.47;;;-0.74;62.23
25130;BME280;13308;50.860;13.664;2024-01-11T15:03:47;97780.44;;;-0.81;61.35
25130;BME280;13308;50.860;13.664;2024-01-11T15:06:12;97779.03;;;-0.87;61.30
25130;BME280;13308;50.860;13.664;2024-01-11T15:08:38;97774.44;;;-0.95;61.23
25130;BME280;13308;50.860;13.664;2024-01-11T15:11:03;97779.50;;;-1.02;61.21
25130;BME280;13308;50.860;13.664;2024-01-11T15:13:29;97771.09;;;-1.09;61.79
25130;BME280;13308;50.860;13.664;2024-01-11T15:15:55;97756.78;;;-1.18;61.39
25130;BME280;13308;50.860;13.664;2024-01-11T15:18:21;97762.50;;;-1.28;61.41
25130;BME280;13308;50.860;13.664;2024-01-11T15:20:46;97771.59;;;-1.24;61.08
25130;BME280;13308;50.860;13.664;2024-01-11T15:23:11;97768.09;;;-1.33;60.96
25130;BME280;13308;50.860;13.664;2024-01-11T15:25:37;97756.47;;;-1.25;61.63
25130;BME280;13308;50.860;13.664;2024-01-11T15:28:02;97752.66;;;-1.15;61.30
25130;BME280;13308;50.860;13.664;2024-01-11T15:30:27;97758.06;;;-1.32;61.71
25130;BME280;13308;50.860;13.664;2024-01-11T15:32:53;97750.72;;;-1.40;62.24
25130;BME280;13308;50.860;13.664;2024-01-11T15:35:18;97748.84;;;-1.40;62.70
25130;BME280;13308;50.860;13.664;2024-01-11T15:37:43;97744.84;;;-1.59;63.21
25130;BME280;13308;50.860;13.664;2024-01-11T15:40:09;97748.03;;;-1.66;63.33
25130;BME280;13308;50.860;13.664;2024-01-11T15:42:34;97756.16;;;-1.66;63.46
25130;BME280;13308;50.860;13.664;2024-01-11T15:45:00;97759.19;;;-1.59;63.45
25130;BME280;13308;50.860;13.664;2024-01-11T15:47:27;97763.44;;;-1.75;63.23
25130;BME280;13308;50.860;13.664;2024-01-11T15:49:53;97772.19;;;-1.78;62.97
25130;BME280;13308;50.860;13.664;2024-01-11T15:52:19;97768.81;;;-1.92;63.41
25130;BME280;13308;50.860;13.664;2024-01-11T15:54:44;97771.34;;;-1.95;63.38
25130;BME280;13308;50.860;13.664;2024-01-11T15:57:10;97775.78;;;-2.08;63.81
25130;BME280;13308;50.860;13.664;2024-01-11T15:59:36;97773.06;;;-2.16;64.16
25130;BME280;13308;50.860;13.664;2024-01-11T16:02:02;97775.59;;;-2.20;64.00
25130;BME280;13308;50.860;13.664;2024-01-11T16:04:27;97773.22;;;-2.13;64.35
25130;BME280;13308;50.860;13.664;2024-01-11T16:06:53;97775.59;;;-2.11;63.33
25130;BME280;13308;50.860;13.664;2024-01-11T16:09:19;97773.38;;;-2.18;63.61
25130;BME280;13308;50.860;13.664;2024-01-11T16:11:47;97780.59;;;-2.35;65.12
25130;BME280;13308;50.860;13.664;2024-01-11T16:14:13;97786.81;;;-2.35;64.61
25130;BME280;13308;50.860;13.664;2024-01-11T16:16:39;97789.63;;;-2.40;64.51
25130;BME280;13308;50.860;13.664;2024-01-11T16:19:05;97777.88;;;-2.44;64.36
25130;BME280;13308;50.860;13.664;2024-01-11T16:21:30;97759.75;;;-2.43;64.98
25130;BME280;13308;50.860;13.664;2024-01-11T16:23:57;97751.81;;;-2.40;65.15
25130;BME280;13308;50.860;13.664;2024-01-11T16:26:23;97757.69;;;-2.46;66.05
25130;BME280;13308;50.860;13.664;2024-01-11T16:28:48;97755.16;;;-2.43;66.76
25130;BME280;13308;50.860;13.664;2024-01-11T16:31:17;97773.72;;;-2.50;67.29
25130;BME280;13308;50.860;13.664;2024-01-11T16:33:43;97760.97;;;-2.58;67.78
25130;BME280;13308;50.860;13.664;2024-01-11T16:36:09;97766.38;;;-2.58;68.22
25130;BME280;13308;50.860;13.664;2024-01-11T16:38:38;97784.63;;;-2.63;68.62
25130;BME280;13308;50.860;13.664;2024-01-11T16:41:03;97798.41;;;-2.65;70.10
25130;BME280;13308;50.860;13.664;2024-01-11T16:43:29;97798.78;;;-2.80;71.23
25130;BME280;13308;50.860;13.664;2024-01-11T16:45:56;97800.53;;;-2.84;71.73
25130;BME280;13308;50.860;13.664;2024-01-11T16:48:22;97797.28;;;-2.64;71.53
25130;BME280;13308;50.860;13.664;2024-01-11T16:50:47;97792.66;;;-2.72;71.46
25130;BME280;13308;50.860;13.664;2024-01-11T16:53:13;97804.16;;;-2.88;71.86
25130;BME280;13308;50.860;13.664;2024-01-11T16:55:38;97799.66;;;-2.93;72.40
25130;BME280;13308;50.860;13.664;2024-01-11T16:58:07;97802.47;;;-2.98;72.95
25130;BME280;13308;50.860;13.664;2024-01-11T17:00:32;97806.63;;;-3.00;73.58
25130;BME280;13308;50.860;13.664;2024-01-11T17:02:57;97813.09;;;-3.01;73.75
25130;BME280;13308;50.860;13.664;2024-01-11T17:05:23;97820.53;;;-3.07;74.37
25130;BME280;13308;50.860;13.664;2024-01-11T17:07:48;97826.03;;;-3.12;75.77
25130;BME280;13308;50.860;13.664;2024-01-11T17:10:14;97819.22;;;-3.09;76.79
25130;BME280;13308;50.860;13.664;2024-01-11T17:12:39;97835.19;;;-2.99;78.37
25130;BME280;13308;50.860;13.664;2024-01-11T17:15:05;97841.53;;;-2.95;78.92
25130;BME280;13308;50.860;13.664;2024-01-11T17:17:31;97845.53;;;-2.93;79.82
25130;BME280;13308;50.860;13.664;2024-01-11T17:19:56;97842.72;;;-2.88;80.28
25130;BME280;13308;50.860;13.664;2024-01-11T17:22:21;97833.31;;;-2.90;81.10
25130;BME280;13308;50.860;13.664;2024-01-11T17:24:47;97841.13;;;-2.89;81.77
25130;BME280;13308;50.860;13.664;2024-01-11T17:27:12;97845.00;;;-2.81;81.84
25130;BME280;13308;50.860;13.664;2024-01-11T17:29:40;97844.66;;;-2.80;81.95
25130;BME280;13308;50.860;13.664;2024-01-11T17:32:05;97850.75;;;-2.74;82.37
25130;BME280;13308;50.860;13.664;2024-01-11T17:34:31;97841.06;;;-2.75;82.48
25130;BME280;13308;50.860;13.664;2024-01-11T17:36:56;97849.16;;;-2.75;82.56
25130;BME280;13308;50.860;13.664;2024-01-11T17:39:22;97861.44;;;-2.69;83.09
25130;BME280;13308;50.860;13.664;2024-01-11T17:41:49;97862.84;;;-2.72;83.25
25130;BME280;13308;50.860;13.664;2024-01-11T17:44:14;97858.72;;;-2.69;83.96
25130;BME280;13308;50.860;13.664;2024-01-11T17:46:39;97854.63;;;-2.67;84.27
25130;BME280;13308;50.860;13.664;2024-01-11T17:49:06;97852.41;;;-2.65;84.49
25130;BME280;13308;50.860;13.664;2024-01-11T17:51:32;97845.22;;;-2.69;85.04
25130;BME280;13308;50.860;13.664;2024-01-11T17:53:57;97843.81;;;-2.67;85.34
25130;BME280;13308;50.860;13.664;2024-01-11T17:56:22;97854.28;;;-2.65;86.10
25130;BME280;13308;50.860;13.664;2024-01-11T17:58:48;97866.72;;;-2.64;86.71
25130;BME280;13308;50.860;13.664;2024-01-11T18:01:22;97869.19;;;-2.68;86.92
25130;BME280;13308;50.860;13.664;2024-01-11T18:03:48;97880.38;;;-2.61;87.09
25130;BME280;13308;50.860;13.664;2024-01-11T18:06:13;97888.59;;;-2.66;86.96
25130;BME280;13308;50.860;13.664;2024-01-11T18:08:38;97898.84;;;-2.76;88.85
25130;BME280;13308;50.860;13.664;2024-01-11T18:11:04;97906.63;;;-2.75;89.89
25130;BME280;13308;50.860;13.664;2024-01-11T18:13:29;97915.03;;;-2.76;90.61
25130;BME280;13308;50.860;13.664;2024-01-11T18:15:55;97915.72;;;-2.71;91.45
25130;BME280;13308;50.860;13.664;2024-01-11T18:18:20;97918.03;;;-2.78;91.54
25130;BME280;13308;50.860;13.664;2024-01-11T18:20:46;97918.16;;;-2.83;91.94
25130;BME280;13308;50.860;13.664;2024-01-11T18:23:15;97918.34;;;-2.79;92.93
25130;BME280;13308;50.860;13.664;2024-01-11T18:25:40;97913.88;;;-2.84;93.98
25130;BME280;13308;50.860;13.664;2024-01-11T18:28:05;97923.66;;;-2.88;94.58
25130;BME280;13308;50.860;13.664;2024-01-11T18:30:31;97918.50;;;-2.98;95.74
25130;BME280;13308;50.860;13.664;2024-01-11T18:32:56;97916.72;;;-3.02;96.66
25130;BME280;13308;50.860;13.664;2024-01-11T18:35:21;97915.31;;;-3.00;97.59
25130;BME280;13308;50.860;13.664;2024-01-11T18:37:47;97914.19;;;-2.99;98.19
25130;BME280;13308;50.860;13.664;2024-01-11T18:40:13;97909.31;;;-2.97;98.36
25130;BME280;13308;50.860;13.664;2024-01-11T18:42:38;97917.00;;;-3.04;98.94
25130;BME280;13308;50.860;13.664;2024-01-11T18:45:04;97919.84;;;-3.09;99.36
25130;BME280;13308;50.860;13.664;2024-01-11T18:47:29;97926.94;;;-3.13;100.00
25130;BME280;13308;50.860;13.664;2024-01-11T18:49:56;97920.97;;;-3.23;100.00
25130;BME280;13308;50.860;13.664;2024-01-11T18:52:22;97920.28;;;-3.29;100.00
25130;BME280;13308;50.860;13.664;2024-01-11T18:54:47;97936.53;;;-3.20;100.00
25130;BME280;13308;50.860;13.664;2024-01-11T18:57:12;97931.88;;;-3.28;100.00
25130;BME280;13308;50.860;13.664;2024-01-11T18:59:40;97932.16;;;-3.30;100.00
25130;BME280;13308;50.860;13.664;2024-01-11T19:02:05;97931.56;;;-3.27;100.00
25130;BME280;13308;50.860;13.664;2024-01-11T19:04:30;97937.56;;;-3.30;100.00
25130;BME280;13308;50.860;13.664;2024-01-11T19:06:56;97945.53;;;-3.25;100.00
25130;BME280;13308;50.860;13.664;2024-01-11T19:09:23;97935.53;;;-3.24;100.00
25130;BME280;13308;50.860;13.664;2024-01-11T19:11:51;97936.84;;;-3.22;100.00
25130;BME280;13308;50.860;13.664;2024-01-11T19:14:17;97931.75;;;-3.23;100.00
25130;BME280;13308;50.860;13.664;2024-01-11T19:16:43;97939.53;;;-3.22;100.00
25130;BME280;13308;50.860;13.664;2024-01-11T19:19:09;97936.84;;;-3.22;100.00